Terminal Aerodrome Forecast
Issued by NWS Binghamton, NY

Home | Current Version | Previous Version | Text Only | Print | Product List | Glossary On
Versions: 1 2 3 4 5 6 7 8 9 10 11 12 13 14 15 16 17 18
000
FTUS41 KBGM 182327
TAFSYR
TAF
KSYR 182327Z 1900/1924 17010G20KT 5SM -RA BR OVC015
      TEMPO 1900/1904 2SM RA
     FM191000 26016G27KT 5SM -SHRA OVC010
     FM191500 28020G34KT 3SM -SN BLSN OVC018
     FM192100 28017G34KT P6SM -SHSN OVC025=

USA.gov is the U.S. government's official web portal to all federal, state and local government web resources and services.